createdAt,value
2022-10-10T00:01:06.179Z,14.97
2022-10-10T00:03:34.533Z,16.90
2022-10-10T00:06:02.784Z,15.97
2022-10-10T00:08:31.042Z,17.60
2022-10-10T00:10:59.412Z,15.23
2022-10-10T00:13:27.827Z,12.30
2022-10-10T00:15:56.478Z,14.23
2022-10-10T00:18:28.903Z,15.87
2022-10-10T00:20:57.258Z,13.77
2022-10-10T00:23:28.870Z,15.73
2022-10-10T00:25:57.638Z,12.00
2022-10-10T00:28:26.287Z,14.80
2022-10-10T00:30:54.760Z,14.13
2022-10-10T00:33:23.220Z,15.27
2022-10-10T00:35:52.814Z,17.60
2022-10-10T00:38:21.105Z,13.07
2022-10-10T00:40:51.752Z,18.70
2022-10-10T00:43:20.406Z,14.53
2022-10-10T00:45:49.639Z,16.07
2022-10-10T00:48:21.239Z,18.07
2022-10-10T00:50:55.517Z,16.10
2022-10-10T00:53:26.908Z,13.83
2022-10-10T00:55:56.607Z,18.43
2022-10-10T00:58:25.877Z,19.70
2022-10-10T01:00:54.539Z,17.90
2022-10-10T01:03:22.987Z,13.37
2022-10-10T01:05:52.172Z,17.80
2022-10-10T01:08:22.614Z,14.80
2022-10-10T01:11:06.353Z,15.87
2022-10-10T01:13:40.139Z,18.17
2022-10-10T01:16:13.021Z,20.67
2022-10-10T01:18:50.280Z,13.27
2022-10-10T01:21:28.198Z,20.53
2022-10-10T01:24:27.233Z,13.00
2022-10-10T01:27:31.010Z,18.07
2022-10-10T01:30:05.815Z,16.10
2022-10-10T01:32:38.820Z,16.07
2022-10-10T01:35:40.732Z,19.40
2022-10-10T01:38:22.115Z,15.10
2022-10-10T01:40:55.166Z,15.17
2022-10-10T01:43:25.934Z,17.37
2022-10-10T01:45:56.329Z,19.03
2022-10-10T01:48:31.819Z,15.67
2022-10-10T01:51:16.386Z,18.17
2022-10-10T01:53:50.932Z,15.93
2022-10-10T01:56:28.448Z,17.30
2022-10-10T01:59:12.403Z,21.40
2022-10-10T02:01:48.685Z,21.40
2022-10-10T02:04:27.874Z,18.87
2022-10-10T02:07:01.614Z,18.90
2022-10-10T02:09:35.698Z,16.67
2022-10-10T02:12:05.689Z,16.93
2022-10-10T02:14:37.372Z,16.20
2022-10-10T02:17:10.808Z,20.33
2022-10-10T02:19:39.840Z,16.77
2022-10-10T02:22:08.569Z,18.87
2022-10-10T02:24:36.867Z,17.87
2022-10-10T02:27:09.500Z,17.20
2022-10-10T02:29:40.229Z,16.73
2022-10-10T02:32:15.143Z,21.77
2022-10-10T02:34:47.568Z,18.67
2022-10-10T02:37:17.378Z,20.07
2022-10-10T02:39:49.325Z,15.27
2022-10-10T02:42:21.607Z,14.67
2022-10-10T02:44:50.060Z,16.83
2022-10-10T02:47:19.845Z,15.20
2022-10-10T02:49:48.604Z,18.63
2022-10-10T02:52:17.984Z,16.20
2022-10-10T02:54:46.376Z,15.40
2022-10-10T02:57:15.333Z,23.73
2022-10-10T02:59:48.557Z,17.97
2022-10-10T03:02:16.778Z,16.43
2022-10-10T03:04:46.596Z,18.97
2022-10-10T03:07:14.936Z,16.17
2022-10-10T03:09:43.259Z,16.63
2022-10-10T03:12:11.544Z,22.70
2022-10-10T03:14:39.915Z,20.83
2022-10-10T03:17:08.155Z,23.43
2022-10-10T03:19:36.462Z,20.93
2022-10-10T03:22:06.264Z,20.83
2022-10-10T03:24:34.627Z,18.83
2022-10-10T03:27:02.987Z,18.57
2022-10-10T03:29:31.509Z,24.13
2022-10-10T03:31:59.666Z,17.63
2022-10-10T03:34:28.171Z,21.50
2022-10-10T03:36:56.859Z,19.30
2022-10-10T03:39:26.379Z,18.60
2022-10-10T03:41:54.817Z,21.97
2022-10-10T03:44:23.062Z,16.87
2022-10-10T03:46:51.713Z,18.57
2022-10-10T03:49:24.610Z,18.53
2022-10-10T03:51:53.656Z,17.83
2022-10-10T03:54:22.035Z,18.20
2022-10-10T03:56:51.511Z,22.10
2022-10-10T03:59:19.893Z,20.53
2022-10-10T04:01:48.163Z,19.60
2022-10-10T04:04:16.498Z,16.90
2022-10-10T04:06:45.045Z,22.47
2022-10-10T04:09:13.555Z,21.23
2022-10-10T04:11:41.950Z,24.70
2022-10-10T04:14:11.534Z,20.63
2022-10-10T04:16:40.173Z,17.03
2022-10-10T04:19:08.663Z,20.47
2022-10-10T04:21:37.139Z,20.83
2022-10-10T04:24:05.743Z,19.10
2022-10-10T04:26:34.563Z,20.07
2022-10-10T04:29:02.928Z,22.27
2022-10-10T04:31:32.486Z,19.90
2022-10-10T04:34:01.098Z,21.57
2022-10-10T04:36:29.425Z,19.23
2022-10-10T04:38:57.731Z,20.37
2022-10-10T04:41:25.901Z,22.17
2022-10-10T04:43:54.294Z,21.93
2022-10-10T04:46:22.726Z,23.87
2022-10-10T04:48:52.239Z,22.30
2022-10-10T04:51:20.801Z,19.40
2022-10-10T04:53:50.587Z,16.50
2022-10-10T04:56:19.502Z,23.50
2022-10-10T04:58:47.908Z,18.13
2022-10-10T05:01:16.395Z,20.47
2022-10-10T05:03:44.697Z,20.57
2022-10-10T05:06:14.590Z,18.70
2022-10-10T05:08:42.765Z,22.43
2022-10-10T05:11:11.296Z,19.73
2022-10-10T05:13:39.626Z,20.20
2022-10-10T05:16:08.107Z,25.70
2022-10-10T05:18:37.526Z,27.60
2022-10-10T05:21:06.971Z,21.77
2022-10-10T05:23:38.018Z,23.57
2022-10-10T05:26:06.666Z,19.87
2022-10-10T05:28:36.519Z,21.80
2022-10-10T05:31:05.378Z,21.77
2022-10-10T05:33:34.050Z,18.80
2022-10-10T05:36:08.056Z,19.43
2022-10-10T05:38:37.702Z,21.27
2022-10-10T05:41:06.189Z,22.50
2022-10-10T05:43:35.250Z,23.20
2022-10-10T05:46:04.438Z,21.13
2022-10-10T05:48:32.750Z,27.20
2022-10-10T05:51:01.801Z,17.27
2022-10-10T05:53:31.094Z,22.63
2022-10-10T05:56:02.192Z,19.43
2022-10-10T05:58:30.798Z,23.93
2022-10-10T06:01:04.472Z,21.23
2022-10-10T06:03:32.936Z,20.10
2022-10-10T06:06:01.628Z,16.87
2022-10-10T06:08:31.282Z,18.83
2022-10-10T06:11:07.967Z,22.37
2022-10-10T06:13:36.312Z,21.90
2022-10-10T06:16:05.099Z,23.23
2022-10-10T06:18:33.258Z,22.37
2022-10-10T06:21:03.653Z,21.93
2022-10-10T06:23:31.772Z,20.97
2022-10-10T06:26:00.574Z,19.63
2022-10-10T06:28:30.549Z,20.73
2022-10-10T06:31:01.695Z,23.17
2022-10-10T06:33:30.050Z,20.97
2022-10-10T06:35:58.596Z,21.20
2022-10-10T06:38:27.599Z,16.67
2022-10-10T06:41:00.304Z,21.70
2022-10-10T06:43:30.273Z,20.37
2022-10-10T06:45:58.714Z,17.47
2022-10-10T06:48:27.411Z,22.53
2022-10-10T06:51:00.350Z,18.57
2022-10-10T06:53:28.967Z,19.57
2022-10-10T06:55:58.075Z,21.97
2022-10-10T06:58:27.183Z,23.13
2022-10-10T07:00:58.766Z,22.60
2022-10-10T07:03:28.128Z,22.23
2022-10-10T07:05:58.403Z,21.17
2022-10-10T07:08:27.413Z,23.67
2022-10-10T07:10:55.949Z,20.73
2022-10-10T07:13:24.449Z,19.40
2022-10-10T07:15:53.406Z,26.20
2022-10-10T07:18:23.205Z,19.40
2022-10-10T07:20:51.380Z,26.90
2022-10-10T07:23:19.802Z,20.80
2022-10-10T07:25:48.077Z,21.63
2022-10-10T07:28:16.547Z,22.93
2022-10-10T07:30:45.480Z,21.90
2022-10-10T07:33:14.125Z,22.53
2022-10-10T07:35:43.774Z,17.83
2022-10-10T07:38:12.783Z,22.73
2022-10-10T07:40:41.543Z,16.50
2022-10-10T07:43:10.054Z,23.13
2022-10-10T07:45:38.571Z,24.77
2022-10-10T07:48:07.094Z,21.40
2022-10-10T07:50:35.322Z,26.77
2022-10-10T07:53:04.887Z,20.13
2022-10-10T07:55:33.307Z,21.57
2022-10-10T07:58:03.673Z,17.07
2022-10-10T08:00:33.302Z,18.03
2022-10-10T08:03:01.507Z,18.50
2022-10-10T08:05:29.695Z,19.97
2022-10-10T08:07:58.087Z,20.37
2022-10-10T08:10:28.830Z,17.50
2022-10-10T08:12:57.159Z,13.17
2022-10-10T08:15:26.900Z,14.63
2022-10-10T08:17:57.367Z,15.60
2022-10-10T08:20:25.727Z,15.93
2022-10-10T08:22:54.156Z,15.83
2022-10-10T08:25:22.941Z,16.37
2022-10-10T08:27:52.560Z,17.10
2022-10-10T08:30:22.088Z,17.30
2022-10-10T08:32:50.800Z,16.37
2022-10-10T08:35:19.428Z,17.40
2022-10-10T08:37:47.689Z,15.63
2022-10-10T08:40:20.385Z,20.90
2022-10-10T08:42:55.681Z,18.97
2022-10-10T08:45:27.568Z,21.37
2022-10-10T08:47:59.478Z,18.07
2022-10-10T08:50:31.640Z,17.60
2022-10-10T08:53:03.038Z,19.47
2022-10-10T08:55:33.728Z,18.00
2022-10-10T08:58:10.799Z,18.03
2022-10-10T09:00:42.854Z,18.97
2022-10-10T09:03:20.577Z,19.03
2022-10-10T09:06:02.426Z,18.13
2022-10-10T09:08:43.489Z,17.37
2022-10-10T09:11:28.564Z,18.93
2022-10-10T09:14:07.748Z,19.60
2022-10-10T09:16:43.752Z,16.43
2022-10-10T09:19:25.690Z,15.90
2022-10-10T09:21:58.435Z,20.27
2022-10-10T09:24:32.407Z,19.17
2022-10-10T09:27:05.175Z,21.97
2022-10-10T09:29:42.532Z,17.30
2022-10-10T09:32:15.309Z,19.97
2022-10-10T09:34:47.378Z,20.47
2022-10-10T09:37:35.522Z,18.97
2022-10-10T09:40:14.308Z,18.60
2022-10-10T09:42:45.303Z,18.80
2022-10-10T09:45:20.268Z,22.10
2022-10-10T09:47:52.481Z,17.87
2022-10-10T09:50:20.788Z,17.53
2022-10-10T09:52:49.716Z,17.93
2022-10-10T09:55:25.189Z,20.73
2022-10-10T09:57:55.045Z,18.80
2022-10-10T10:00:33.868Z,21.57
2022-10-10T10:03:10.023Z,19.57
2022-10-10T10:05:38.961Z,18.10
2022-10-10T10:08:18.631Z,20.73
2022-10-10T10:10:47.051Z,16.87
2022-10-10T10:13:20.777Z,19.80
2022-10-10T10:15:52.952Z,18.57
2022-10-10T10:18:27.836Z,16.53
2022-10-10T10:21:12.453Z,16.60
2022-10-10T10:23:44.728Z,18.90
2022-10-10T10:26:19.750Z,18.37
2022-10-10T10:28:48.861Z,21.57
2022-10-10T10:31:28.255Z,14.93
2022-10-10T10:34:18.813Z,20.17
2022-10-10T10:36:55.959Z,22.30
2022-10-10T10:39:43.574Z,14.38
2022-10-10T10:42:25.033Z,20.43
2022-10-10T10:45:02.291Z,17.27
2022-10-10T10:47:40.885Z,23.10
2022-10-10T10:50:26.696Z,15.40
2022-10-10T10:53:00.905Z,19.13
2022-10-10T10:55:39.487Z,16.52
2022-10-10T10:59:05.790Z,14.60
2022-10-10T11:01:55.259Z,16.10
2022-10-10T11:05:18.787Z,9.60
2022-10-10T11:07:44.157Z,12.43
2022-10-10T11:10:18.706Z,9.40
2022-10-10T11:13:00.769Z,8.73
2022-10-10T11:16:01.500Z,13.80
2022-10-10T11:18:28.895Z,6.33
2022-10-10T11:21:03.567Z,9.53
2022-10-10T11:23:37.872Z,7.63
2022-10-10T11:26:09.929Z,7.93
2022-10-10T11:28:47.161Z,5.78
2022-10-10T11:31:23.211Z,9.68
2022-10-10T11:33:57.409Z,7.03
2022-10-10T11:36:30.961Z,7.40
2022-10-10T11:39:04.707Z,6.90
2022-10-10T11:41:37.801Z,4.85
2022-10-10T11:44:11.542Z,7.68
2022-10-10T11:46:43.957Z,4.55
2022-10-10T11:49:21.126Z,4.15
2022-10-10T11:52:32.380Z,5.40
2022-10-10T11:55:07.176Z,3.57
2022-10-10T11:57:41.661Z,3.25
2022-10-10T12:00:15.160Z,6.00
2022-10-10T12:02:44.913Z,9.60
2022-10-10T12:05:22.280Z,7.35
2022-10-10T12:08:05.837Z,5.65
2022-10-10T12:10:40.274Z,4.90
2022-10-10T12:13:24.354Z,5.53
2022-10-10T12:15:55.450Z,6.40
2022-10-10T12:18:32.648Z,5.97
2022-10-10T12:21:09.361Z,11.32
2022-10-10T12:23:41.118Z,7.80
2022-10-10T12:26:17.657Z,10.33
2022-10-10T12:29:04.103Z,10.15
2022-10-10T12:31:34.566Z,9.27
2022-10-10T12:34:06.120Z,16.37
2022-10-10T12:37:07.521Z,17.07
2022-10-10T12:40:00.909Z,8.38
2022-10-10T12:42:31.902Z,10.50
2022-10-10T12:45:00.435Z,11.57
2022-10-10T12:48:04.450Z,13.15
2022-10-10T12:50:36.934Z,6.15
2022-10-10T12:53:07.566Z,15.43
2022-10-10T12:55:45.136Z,10.50
2022-10-10T12:58:26.632Z,12.48
2022-10-10T13:00:57.875Z,12.70
2022-10-10T13:03:31.312Z,14.27
2022-10-10T13:06:05.353Z,13.27
2022-10-10T13:08:37.240Z,9.10
2022-10-10T13:11:12.682Z,5.93
2022-10-10T13:13:41.729Z,8.57
2022-10-10T13:16:14.874Z,13.02
2022-10-10T13:18:49.967Z,18.48
2022-10-10T13:21:22.325Z,12.17
2022-10-10T13:26:46.967Z,9.50
2022-10-10T13:29:23.667Z,12.77
2022-10-10T13:31:53.802Z,8.40
2022-10-10T13:34:27.305Z,7.73
2022-10-10T13:36:58.229Z,8.17
2022-10-10T13:39:27.597Z,11.23
2022-10-10T13:41:57.942Z,10.93
2022-10-10T13:44:32.394Z,11.50
2022-10-10T13:47:21.027Z,11.73
2022-10-10T13:49:56.808Z,20.27
2022-10-10T13:52:25.455Z,13.60
2022-10-10T13:54:53.856Z,15.75
2022-10-10T13:57:26.788Z,15.60
2022-10-10T14:00:02.370Z,19.83
2022-10-10T14:02:33.313Z,31.92
2022-10-10T14:05:06.222Z,14.43
2022-10-10T14:07:34.732Z,16.52
2022-10-10T14:10:06.882Z,12.03
2022-10-10T14:12:41.211Z,16.03
2022-10-10T14:15:36.594Z,11.57
2022-10-10T14:18:15.521Z,17.37
2022-10-10T14:20:43.987Z,13.20
2022-10-10T14:23:12.539Z,13.97
2022-10-10T14:25:41.890Z,11.55
2022-10-10T14:28:17.192Z,13.03
2022-10-10T14:30:45.682Z,11.87
2022-10-10T14:33:15.193Z,12.80
2022-10-10T14:35:44.056Z,11.97
2022-10-10T14:38:14.168Z,13.17
2022-10-10T14:40:43.466Z,13.10
2022-10-10T14:43:13.226Z,11.57
2022-10-10T14:45:41.753Z,16.08
2022-10-10T14:48:12.127Z,12.90
2022-10-10T14:50:44.518Z,14.20
2022-10-10T14:53:12.864Z,11.27
2022-10-10T14:55:43.634Z,13.90
2022-10-10T14:58:16.918Z,16.13
2022-10-10T15:00:45.484Z,18.63
2022-10-10T15:03:14.436Z,13.47
2022-10-10T15:05:43.167Z,10.97
2022-10-10T15:08:15.678Z,7.13
2022-10-10T15:10:44.789Z,10.77
2022-10-10T15:13:15.534Z,14.17
2022-10-10T15:15:43.880Z,14.80
2022-10-10T15:18:40.889Z,14.48
2022-10-10T15:21:01.542Z,19.13
2022-10-10T15:23:30.014Z,21.40
2022-10-10T15:26:01.206Z,8.43
2022-10-10T15:28:30.702Z,10.20
2022-10-10T15:30:59.444Z,10.70
2022-10-10T15:33:28.102Z,10.53
2022-10-10T15:36:13.791Z,12.53
2022-10-10T15:38:44.171Z,12.52
2022-10-10T15:41:12.473Z,10.03
2022-10-10T15:43:47.003Z,11.90
2022-10-10T15:46:15.719Z,10.70
2022-10-10T15:48:46.767Z,7.17
2022-10-10T15:51:15.391Z,6.17
2022-10-10T15:53:43.877Z,8.80
2022-10-10T15:56:13.607Z,8.33
2022-10-10T15:58:42.436Z,9.53
2022-10-10T16:01:14.323Z,11.48
2022-10-10T16:03:43.620Z,10.05
2022-10-10T16:06:12.105Z,6.23
2022-10-10T16:08:40.721Z,14.38
2022-10-10T16:11:10.441Z,14.77
2022-10-10T16:13:39.532Z,12.10
2022-10-10T16:16:11.255Z,6.18
2022-10-10T16:18:41.768Z,9.23
2022-10-10T16:21:11.674Z,9.00
2022-10-10T16:23:40.549Z,9.70
2022-10-10T16:26:10.861Z,19.87
2022-10-10T16:28:39.268Z,14.67
2022-10-10T16:31:09.352Z,11.43
2022-10-10T16:33:39.037Z,18.23
2022-10-10T16:36:12.137Z,11.03
2022-10-10T16:38:40.506Z,19.23
2022-10-10T16:41:28.797Z,11.20
2022-10-10T16:43:59.638Z,9.47
2022-10-10T16:46:27.969Z,14.30
2022-10-10T16:48:59.223Z,11.13
2022-10-10T16:51:30.191Z,10.27
2022-10-10T16:54:01.705Z,9.37
2022-10-10T16:56:31.090Z,10.33
2022-10-10T16:58:59.667Z,12.30
2022-10-10T17:01:28.309Z,10.57
2022-10-10T17:03:58.574Z,14.40
2022-10-10T17:06:34.946Z,14.90
2022-10-10T17:09:03.457Z,11.13
2022-10-10T17:11:34.432Z,13.53
2022-10-10T17:14:02.536Z,14.13
2022-10-10T17:19:20.487Z,14.50
2022-10-10T17:21:50.278Z,16.67
2022-10-10T17:24:18.709Z,12.13
2022-10-10T17:26:47.133Z,10.43
2022-10-10T17:29:15.569Z,12.57
2022-10-10T17:31:44.274Z,11.60
2022-10-10T17:34:12.907Z,13.80
2022-10-10T17:36:41.444Z,18.73
2022-10-10T17:39:11.103Z,8.07
2022-10-10T17:41:39.511Z,14.30
2022-10-10T17:44:10.485Z,17.00
2022-10-10T17:46:40.156Z,12.13
2022-10-10T17:49:10.681Z,13.07
2022-10-10T17:51:40.057Z,7.70
2022-10-10T17:54:13.501Z,8.20
2022-10-10T17:56:44.503Z,8.43
2022-10-10T17:59:13.279Z,13.97
2022-10-10T18:01:41.554Z,14.10
2022-10-10T18:04:10.057Z,11.77
2022-10-10T18:06:39.021Z,10.80
2022-10-10T18:09:07.430Z,12.53
2022-10-10T18:11:37.168Z,10.63
2022-10-10T18:14:05.549Z,14.63
2022-10-10T18:16:35.452Z,13.13
2022-10-10T18:19:04.712Z,14.47
2022-10-10T18:21:33.324Z,14.10
2022-10-10T18:24:01.836Z,10.70
2022-10-10T18:26:31.613Z,12.90
2022-10-10T18:29:01.111Z,13.43
2022-10-10T18:31:31.060Z,15.90
2022-10-10T18:33:59.884Z,9.93
2022-10-10T18:36:29.473Z,12.70
2022-10-10T18:39:00.350Z,14.50
2022-10-10T18:41:33.979Z,17.70
2022-10-10T18:44:04.998Z,11.67
2022-10-10T18:46:33.469Z,11.83
2022-10-10T18:49:02.310Z,15.40
2022-10-10T18:51:30.954Z,11.97
2022-10-10T18:54:03.427Z,17.27
2022-10-10T18:56:32.902Z,13.23
2022-10-10T18:59:04.054Z,11.40
2022-10-10T19:01:35.287Z,13.07
2022-10-10T19:04:04.453Z,12.37
2022-10-10T19:06:33.259Z,13.07
2022-10-10T19:09:02.839Z,16.13
2022-10-10T19:11:33.349Z,13.80
2022-10-10T19:14:06.047Z,15.57
2022-10-10T19:16:35.155Z,14.87
2022-10-10T19:19:04.099Z,16.70
2022-10-10T19:21:34.536Z,19.70
2022-10-10T19:24:04.452Z,11.47
2022-10-10T19:26:33.584Z,21.07
2022-10-10T19:29:06.471Z,13.67
2022-10-10T19:31:37.528Z,14.97
2022-10-10T19:34:06.329Z,15.23
2022-10-10T19:36:38.453Z,13.80
2022-10-10T19:39:08.740Z,14.97
2022-10-10T19:41:37.243Z,13.47
2022-10-10T19:44:05.870Z,14.87
2022-10-10T19:46:37.105Z,13.17
2022-10-10T19:49:07.515Z,11.20
2022-10-10T19:51:35.920Z,11.43
2022-10-10T19:54:04.317Z,11.83
2022-10-10T19:56:32.741Z,15.50
2022-10-10T19:59:04.532Z,14.33
2022-10-10T20:01:33.564Z,12.43
2022-10-10T20:04:01.944Z,17.03
2022-10-10T20:06:31.408Z,12.60
2022-10-10T20:08:59.693Z,18.03
2022-10-10T20:11:28.034Z,11.57
2022-10-10T20:13:57.350Z,9.90
2022-10-10T20:16:27.396Z,11.40
2022-10-10T20:18:57.814Z,16.87
2022-10-10T20:21:31.511Z,21.37
2022-10-10T20:24:02.897Z,12.27
2022-10-10T20:26:31.622Z,14.60
2022-10-10T20:29:00.735Z,16.13
2022-10-10T20:31:30.909Z,18.23
2022-10-10T20:34:00.744Z,14.90
2022-10-10T20:36:29.919Z,13.97
2022-10-10T20:39:00.623Z,15.30
2022-10-10T20:41:31.964Z,14.30
2022-10-10T20:44:01.628Z,12.50
2022-10-10T20:46:33.274Z,14.87
2022-10-10T20:49:03.049Z,16.57
2022-10-10T20:51:31.584Z,16.30
2022-10-10T20:54:03.074Z,15.23
2022-10-10T20:56:32.704Z,21.57
2022-10-10T20:59:01.498Z,13.60
2022-10-10T21:01:31.156Z,13.63
2022-10-10T21:03:59.730Z,14.17
2022-10-10T21:06:29.742Z,20.30
2022-10-10T21:08:59.749Z,15.37
2022-10-10T21:11:29.470Z,19.17
2022-10-10T21:13:59.540Z,13.87
2022-10-10T21:16:29.542Z,14.83
2022-10-10T21:18:58.766Z,14.23
2022-10-10T21:21:29.437Z,11.63
2022-10-10T21:23:58.153Z,13.93
2022-10-10T21:26:28.959Z,16.37
2022-10-10T21:28:58.351Z,19.43
2022-10-10T21:31:28.596Z,17.87
2022-10-10T21:33:56.950Z,19.30
2022-10-10T21:36:27.112Z,21.00
2022-10-10T21:38:56.093Z,17.10
2022-10-10T21:41:25.508Z,18.20
2022-10-10T21:43:57.025Z,19.20
2022-10-10T21:46:28.613Z,20.47
2022-10-10T21:48:59.784Z,13.90
2022-10-10T21:51:28.050Z,17.30
2022-10-10T21:53:57.432Z,17.73
2022-10-10T21:56:26.156Z,17.40
2022-10-10T21:59:00.277Z,19.13
2022-10-10T22:01:32.752Z,15.27
2022-10-10T22:04:01.354Z,15.03
2022-10-10T22:06:29.829Z,16.13
2022-10-10T22:08:59.437Z,21.83
2022-10-10T22:11:29.938Z,18.63
2022-10-10T22:14:02.148Z,21.67
2022-10-10T22:16:31.019Z,18.87
2022-10-10T22:18:59.927Z,16.73
2022-10-10T22:21:32.073Z,14.70
2022-10-10T22:24:02.518Z,12.90
2022-10-10T22:26:31.828Z,14.43
2022-10-10T22:29:01.519Z,16.93
2022-10-10T22:31:30.148Z,22.80
2022-10-10T22:33:58.782Z,21.30
2022-10-10T22:36:27.194Z,18.77
2022-10-10T22:38:55.385Z,22.07
2022-10-10T22:41:23.737Z,22.10
2022-10-10T22:43:52.094Z,20.67
2022-10-10T22:46:21.590Z,19.10
2022-10-10T22:48:49.803Z,23.67
2022-10-10T22:51:19.733Z,16.83
2022-10-10T22:53:49.247Z,20.17
2022-10-10T22:56:20.176Z,17.03
2022-10-10T22:58:48.980Z,18.33
2022-10-10T23:01:18.834Z,18.30
2022-10-10T23:03:49.047Z,14.83
2022-10-10T23:06:17.834Z,23.23
2022-10-10T23:08:46.175Z,17.53
2022-10-10T23:11:14.507Z,16.60
2022-10-10T23:13:42.847Z,16.97
2022-10-10T23:16:12.143Z,16.97
2022-10-10T23:18:40.406Z,20.33
2022-10-10T23:21:10.109Z,18.27
2022-10-10T23:23:38.811Z,16.10
2022-10-10T23:26:08.632Z,16.17
2022-10-10T23:28:39.546Z,19.33
2022-10-10T23:31:09.220Z,15.60
2022-10-10T23:33:37.651Z,14.40
2022-10-10T23:36:11.017Z,22.87
2022-10-10T23:38:39.840Z,20.60
2022-10-10T23:41:08.521Z,20.37
2022-10-10T23:43:37.043Z,16.23
2022-10-10T23:46:06.616Z,14.80
2022-10-10T23:48:35.409Z,18.13
2022-10-10T23:51:03.751Z,20.70
2022-10-10T23:53:33.842Z,19.93
2022-10-10T23:56:02.580Z,17.30
2022-10-10T23:58:31.217Z,23.60
